Time;durP1;ratioP1;P1;durP2;ratioP2;P2;SDS_P1;SDS_P2;PMS_P1;PMS_P2;Temp;Humidity;BMP_temperature;BMP_pressure;BME280_temperature;BME280_humidity;BME280_pressure;Samples;Min_cycle;Max_cycle;Signal;HPM_P1;HPM_P2
2022/08/29 00:02:09;;;;;;;13.03;3.92;;;;;;;29.49;51.21;101275.66;1707634;83;21101;-55
2022/08/29 00:04:37;;;;;;;13.35;3.92;;;;;;;29.50;51.32;101274.66;1705348;83;21308;-55
2022/08/29 00:07:04;;;;;;;13.55;4.55;;;;;;;29.49;51.47;101275.66;1710250;83;21062;-55
2022/08/29 00:09:31;;;;;;;15.15;4.53;;;;;;;29.49;51.58;101281.02;1693449;83;21128;-55
2022/08/29 00:11:57;;;;;;;13.10;4.25;;;;;;;29.48;51.72;101284.67;1697587;83;20995;-56
2022/08/29 00:14:24;;;;;;;9.08;4.72;;;;;;;29.48;51.82;101284.67;1694343;83;21045;-55
2022/08/29 00:16:51;;;;;;;13.75;4.55;;;;;;;29.47;51.89;101283.00;1688213;84;21152;-55
2022/08/29 00:19:19;;;;;;;12.75;4.53;;;;;;;29.44;52.00;101285.47;1686711;84;21018;-55
2022/08/29 00:21:46;;;;;;;12.47;4.47;;;;;;;29.44;52.14;101288.63;1688830;84;21097;-55
2022/08/29 00:24:12;;;;;;;11.93;4.03;;;;;;;29.43;52.21;101286.95;1717143;83;21518;-55
2022/08/29 00:26:41;;;;;;;10.43;3.87;;;;;;;29.41;52.41;101285.73;1723439;82;21042;-55
2022/08/29 00:29:08;;;;;;;9.13;4.50;;;;;;;29.40;52.56;101285.40;1722029;82;21536;-55
2022/08/29 00:31:35;;;;;;;12.75;4.50;;;;;;;29.38;52.68;101284.69;1704897;83;21005;-55
2022/08/29 00:34:01;;;;;;;14.20;4.40;;;;;;;29.39;52.83;101281.49;1722523;82;21015;-55
2022/08/29 00:36:28;;;;;;;8.03;4.03;;;;;;;29.38;52.92;101281.16;1724845;82;21104;-55
2022/08/29 00:38:55;;;;;;;8.10;4.08;;;;;;;29.37;53.00;101279.45;1720871;83;21502;-56
2022/08/29 00:41:22;;;;;;;11.78;5.03;;;;;;;29.36;53.07;101283.13;1722809;82;21095;-55
2022/08/29 00:43:49;;;;;;;14.20;4.33;;;;;;;29.36;53.10;101291.17;1723380;82;21019;-55
2022/08/29 00:46:50;;;;;;;11.03;3.90;;;;;;;29.35;53.14;101290.32;1720846;82;21047;-56
2022/08/29 00:49:40;;;;;;;9.53;3.90;;;;;;;29.35;53.23;101286.78;1658869;86;21039;-55
2022/08/29 00:52:17;;;;;;;15.38;4.53;;;;;;;29.34;53.37;101287.79;1649289;86;21712;-55
2022/08/29 00:54:47;;;;;;;12.78;4.42;;;;;;;29.32;53.54;101288.42;1649928;86;21081;-55
2022/08/29 00:57:17;;;;;;;9.45;4.30;;;;;;;29.31;53.66;101289.39;1662942;84;21214;-55
2022/08/29 00:59:43;;;;;;;10.28;4.70;;;;;;;29.30;53.64;101291.73;1677647;85;21033;-56
2022/08/29 01:02:10;;;;;;;13.85;4.80;;;;;;;29.28;53.60;101283.84;1629748;86;21092;-55
2022/08/29 01:04:38;;;;;;;13.58;4.87;;;;;;;29.27;53.61;101289.33;1647991;86;21109;-55
2022/08/29 01:07:07;;;;;;;18.30;5.25;;;;;;;29.25;53.71;101288.62;1644879;86;21090;-57
2022/08/29 01:09:36;;;;;;;12.50;4.17;;;;;;;29.24;53.76;101290.96;1650164;86;21105;-55
2022/08/29 01:12:15;;;;;;;17.98;3.90;;;;;;;29.22;53.81;101289.77;1649933;86;21109;-55
2022/08/29 01:14:53;;;;;;;13.15;4.55;;;;;;;29.21;53.88;101283.19;1636272;86;21018;-55
2022/08/29 01:17:27;;;;;;;9.90;4.08;;;;;;;29.19;53.97;101278.45;1620166;87;21148;-55
2022/08/29 01:20:21;;;;;;;10.53;4.20;;;;;;;29.18;54.01;101275.44;1577900;89;21095;-56
2022/08/29 01:23:14;;;;;;;11.55;4.47;;;;;;;29.15;54.11;101276.56;1573629;91;21129;-55
2022/08/29 01:25:47;;;;;;;12.07;4.17;;;;;;;29.14;54.23;101272.66;1578019;91;21091;-55
2022/08/29 01:28:24;;;;;;;10.45;4.05;;;;;;;29.12;54.31;101270.61;1576725;91;21156;-55
2022/08/29 01:31:13;;;;;;;10.30;4.05;;;;;;;29.10;54.33;101272.58;1559852;91;21057;-56
2022/08/29 01:33:58;;;;;;;15.85;5.00;;;;;;;29.09;54.25;101270.87;1556395;92;21542;-56
2022/08/29 01:36:41;;;;;;;10.03;4.50;;;;;;;29.07;54.29;101268.34;1554285;92;21097;-56
2022/08/29 01:39:08;;;;;;;15.85;4.95;;;;;;;29.06;54.26;101273.33;1552950;92;21064;-56
2022/08/29 01:41:35;;;;;;;11.95;4.05;;;;;;;29.05;54.28;101270.80;1556775;92;21085;-56
2022/08/29 01:44:09;;;;;;;25.57;5.20;;;;;;;29.04;54.30;101270.46;1557090;92;21097;-56
2022/08/29 01:46:37;;;;;;;12.03;4.28;;;;;;;29.01;54.28;101266.22;1551900;92;21611;-56
2022/08/29 01:49:07;;;;;;;13.10;4.62;;;;;;;29.01;54.38;101269.38;1576871;90;21102;-56
2022/08/29 01:51:34;;;;;;;14.18;4.08;;;;;;;28.98;54.49;101266.00;1597389;90;21059;-56
2022/08/29 01:54:01;;;;;;;15.53;4.20;;;;;;;28.97;54.57;101268.83;1608534;87;21113;-56
2022/08/29 01:56:30;;;;;;;13.53;4.92;;;;;;;28.96;54.65;101272.48;1657345;83;21054;-56
2022/08/29 01:58:58;;;;;;;8.78;4.20;;;;;;;28.94;54.73;101276.64;1716527;82;21071;-56
2022/08/29 02:01:28;;;;;;;11.50;3.87;;;;;;;28.91;54.75;101270.20;1720435;82;21457;-56
2022/08/29 02:03:57;;;;;;;11.45;4.20;;;;;;;28.88;54.75;101275.86;1703155;83;21616;-56
2022/08/29 02:06:25;;;;;;;12.37;4.60;;;;;;;28.87;54.82;101280.02;1693568;83;21077;-56
2022/08/29 02:08:52;;;;;;;9.90;3.90;;;;;;;28.83;54.94;101272.73;1706523;83;21006;-56
2022/08/29 02:11:19;;;;;;;12.80;4.08;;;;;;;28.80;55.08;101275.70;1708744;83;21018;-56
2022/08/29 02:13:55;;;;;;;8.23;4.17;;;;;;;28.78;55.20;101278.16;1698199;83;21101;-56
2022/08/29 02:16:24;;;;;;;16.05;4.25;;;;;;;28.76;55.17;101288.16;1706879;83;21052;-56
2022/08/29 02:18:52;;;;;;;14.55;5.33;;;;;;;28.70;55.31;101285.55;1718322;82;21034;-56
2022/08/29 02:21:21;;;;;;;12.90;4.12;;;;;;;28.66;55.44;101277.91;1697752;83;21065;-57
2022/08/29 02:23:49;;;;;;;15.05;4.72;;;;;;;28.63;55.40;101281.70;1691275;83;21062;-55
2022/08/29 02:26:19;;;;;;;13.08;4.10;;;;;;;28.58;55.50;101283.11;1690717;84;21050;-56
2022/08/29 02:28:48;;;;;;;12.15;4.53;;;;;;;28.53;55.58;101282.14;1689435;84;21127;-56
2022/08/29 02:31:15;;;;;;;11.88;5.67;;;;;;;28.49;55.52;101289.23;1688204;84;21061;-56
2022/08/29 02:33:42;;;;;;;12.33;4.58;;;;;;;28.44;55.54;101292.30;1723184;82;21077;-56
2022/08/29 02:36:09;;;;;;;15.20;5.45;;;;;;;28.40;55.55;101290.87;1719682;83;20991;-57
2022/08/29 02:38:36;;;;;;;11.43;4.80;;;;;;;28.38;55.50;101298.20;1722199;82;21023;-56
2022/08/29 02:41:02;;;;;;;14.78;5.28;;;;;;;28.35;55.43;101299.82;1663165;85;21546;-56
2022/08/29 02:43:29;;;;;;;12.20;5.20;;;;;;;28.33;55.42;101296.91;1723054;83;21565;-56
2022/08/29 02:45:56;;;;;;;11.10;4.70;;;;;;;28.30;55.56;101295.83;1720554;83;21067;-56
2022/08/29 02:48:23;;;;;;;11.15;4.70;;;;;;;28.26;55.63;101295.25;1719513;82;21120;-56
2022/08/29 02:50:52;;;;;;;16.05;4.78;;;;;;;28.24;55.70;101301.23;1716723;82;21093;-56
2022/08/29 02:53:22;;;;;;;17.30;5.55;;;;;;;28.21;55.70;101297.50;1717564;82;21018;-56
2022/08/29 02:55:50;;;;;;;12.37;5.45;;;;;;;28.19;55.67;101302.14;1719005;82;21025;-55
2022/08/29 02:58:19;;;;;;;12.53;4.85;;;;;;;28.16;55.46;101298.37;1723093;82;21103;-56
2022/08/29 03:00:45;;;;;;;11.05;4.70;;;;;;;28.13;55.22;101300.00;1681486;84;21571;-56
2022/08/29 03:03:12;;;;;;;15.30;4.50;;;;;;;28.12;54.86;101302.30;1720594;82;21466;-56
2022/08/29 03:05:39;;;;;;;10.65;4.37;;;;;;;28.11;54.60;101303.27;1682616;84;21077;-56
2022/08/29 03:08:09;;;;;;;19.27;5.28;;;;;;;28.10;54.27;101298.91;1719622;83;21497;-56
2022/08/29 03:10:37;;;;;;;14.43;4.75;;;;;;;28.10;53.99;101300.25;1720207;83;21074;-56
2022/08/29 03:13:04;;;;;;;14.65;5.40;;;;;;;28.10;53.76;101304.27;1718996;83;21110;-56
2022/08/29 03:15:31;;;;;;;12.18;4.80;;;;;;;28.09;53.53;101306.56;1714182;83;21077;-56
2022/08/29 03:17:58;;;;;;;14.58;4.75;;;;;;;28.09;53.34;101307.90;1717955;83;21082;-55
2022/08/29 03:20:24;;;;;;;15.18;5.33;;;;;;;28.08;53.31;101308.89;1722278;82;21034;-56
2022/08/29 03:22:52;;;;;;;17.05;5.10;;;;;;;28.05;53.44;101309.14;1723237;82;21070;-56
2022/08/29 03:25:20;;;;;;;12.20;4.95;;;;;;;28.00;53.45;101306.89;1721289;82;21019;-56
2022/08/29 03:27:47;;;;;;;13.35;5.03;;;;;;;28.01;53.27;101314.40;1711854;82;21514;-56
2022/08/29 03:30:15;;;;;;;15.80;4.75;;;;;;;27.99;52.98;101317.70;1716909;82;21030;-55
2022/08/29 03:32:42;;;;;;;10.48;5.08;;;;;;;27.99;52.72;101318.55;1661869;83;21093;-56
2022/08/29 03:35:10;;;;;;;12.98;4.53;;;;;;;27.99;52.62;101320.38;1717759;82;21015;-56
2022/08/29 03:37:36;;;;;;;15.55;5.28;;;;;;;27.98;52.45;101322.23;1714771;82;21007;-55
2022/08/29 03:40:05;;;;;;;13.75;4.58;;;;;;;27.99;52.36;101323.05;1721066;82;20999;-55
2022/08/29 03:42:31;;;;;;;10.08;4.70;;;;;;;27.97;52.25;101325.86;1718750;82;21035;-56
2022/08/29 03:45:00;;;;;;;11.00;4.35;;;;;;;27.96;52.20;101330.88;1722188;82;21485;-56
2022/08/29 03:47:27;;;;;;;13.95;5.17;;;;;;;27.96;52.05;101334.88;1656968;84;21061;-56
2022/08/29 03:49:54;;;;;;;16.42;4.70;;;;;;;27.95;52.02;101336.30;1713819;82;21078;-56
2022/08/29 03:52:20;;;;;;;13.08;4.47;;;;;;;27.94;51.96;101333.28;1658035;85;21057;-55
2022/08/29 03:54:47;;;;;;;17.20;4.97;;;;;;;27.93;51.84;101343.13;1717464;82;21082;-55
2022/08/29 03:57:14;;;;;;;10.98;4.30;;;;;;;27.92;51.81;101340.59;1718351;82;21145;-56
2022/08/29 03:59:41;;;;;;;16.60;5.40;;;;;;;27.90;51.73;101344.70;1721513;82;21038;-56
2022/08/29 04:02:08;;;;;;;12.13;4.55;;;;;;;27.90;51.73;101345.22;1693130;82;21375;-56
2022/08/29 04:07:21;;;;;;;9.20;3.87;;;;;;;27.89;51.71;101344.84;1712029;82;21028;-56
2022/08/29 04:09:47;;;;;;;16.73;4.67;;;;;;;27.89;51.63;101345.70;1658254;84;21061;-55
2022/08/29 04:12:14;;;;;;;14.18;4.62;;;;;;;27.91;51.68;101349.57;1722788;83;21021;-56
2022/08/29 04:14:41;;;;;;;18.62;5.67;;;;;;;27.91;51.78;101346.90;1723319;82;21007;-56
2022/08/29 04:19:37;;;;;;;16.80;4.65;;;;;;;27.94;51.71;101353.34;1660880;85;21028;-56
2022/08/29 04:22:04;;;;;;;7.10;4.70;;;;;;;27.94;51.58;101353.34;1658779;84;21542;-56
2022/08/29 04:24:32;;;;;;;10.25;4.22;;;;;;;27.95;51.60;101356.36;1659352;85;21092;-56
2022/08/29 04:26:59;;;;;;;8.50;4.10;;;;;;;27.97;51.59;101359.78;1623251;87;21621;-55
2022/08/29 04:29:26;;;;;;;11.75;4.47;;;;;;;27.97;51.55;101358.45;1661318;85;21571;-56
2022/08/29 04:31:53;;;;;;;14.68;4.92;;;;;;;27.98;51.38;101361.02;1660467;85;21082;-56
2022/08/29 04:34:20;;;;;;;13.48;4.58;;;;;;;27.99;51.24;101352.47;1630649;88;21038;-56
2022/08/29 04:36:47;;;;;;;13.35;5.28;;;;;;;28.02;51.13;101360.25;1640883;86;21138;-56
2022/08/29 04:39:15;;;;;;;13.70;4.65;;;;;;;28.04;51.03;101360.97;1655280;86;21011;-56
2022/08/29 04:41:42;;;;;;;9.98;4.25;;;;;;;28.12;50.63;101364.70;1658182;85;21087;-56
2022/08/29 04:44:10;;;;;;;10.05;4.37;;;;;;;28.16;50.39;101362.59;1658988;86;22725;-56
2022/08/29 04:46:38;;;;;;;14.50;4.58;;;;;;;28.14;50.35;101369.91;1658044;85;21060;-56
2022/08/29 04:49:05;;;;;;;9.78;3.87;;;;;;;28.15;50.28;101364.93;1648014;84;21074;-56
2022/08/29 04:51:33;;;;;;;10.43;3.92;;;;;;;28.23;50.06;101363.78;1658074;85;21043;-56
2022/08/29 04:54:00;;;;;;;11.15;4.05;;;;;;;28.21;50.07;101367.08;1656680;85;21604;-56
2022/08/29 04:56:26;;;;;;;10.88;4.33;;;;;;;28.22;50.05;101362.06;1662331;84;21058;-56
2022/08/29 04:58:54;;;;;;;11.00;4.42;;;;;;;28.19;50.23;101357.00;1656763;86;21174;-56
2022/08/29 05:01:21;;;;;;;9.80;4.03;;;;;;;28.21;50.30;101361.73;1654637;86;21066;-57
2022/08/29 05:03:49;;;;;;;13.32;4.12;;;;;;;28.24;50.37;101364.61;1659666;85;21043;-57
2022/08/29 05:06:17;;;;;;;11.93;3.95;;;;;;;28.26;50.44;101366.17;1638964;85;21045;-56
2022/08/29 05:08:44;;;;;;;11.70;4.33;;;;;;;28.30;50.50;101364.08;1649653;86;21034;-56
2022/08/29 05:11:18;;;;;;;7.80;4.40;;;;;;;28.33;50.50;101367.36;1659331;85;21063;-56
2022/08/29 05:13:46;;;;;;;10.30;4.42;;;;;;;28.37;50.50;101362.58;1630843;87;20998;-56
2022/08/29 05:16:14;;;;;;;13.80;4.33;;;;;;;28.42;50.32;101364.38;1682760;82;22045;-56
2022/08/29 05:18:45;;;;;;;13.08;3.98;;;;;;;28.46;50.08;101368.49;1716515;82;21011;-56
2022/08/29 05:21:14;;;;;;;9.63;3.87;;;;;;;28.50;49.44;101369.41;1703470;83;21613;-57
2022/08/29 05:23:40;;;;;;;11.18;3.98;;;;;;;28.54;48.54;101367.33;1690076;83;21002;-56
2022/08/29 05:26:07;;;;;;;6.87;4.25;;;;;;;28.58;48.24;101372.33;1719756;82;21030;-56
2022/08/29 05:28:35;;;;;;;13.08;4.15;;;;;;;28.61;48.00;101368.02;1702539;83;21459;-56
2022/08/29 05:31:02;;;;;;;16.48;4.12;;;;;;;28.62;48.12;101367.05;1696555;83;21033;-56
2022/08/29 05:33:29;;;;;;;10.72;3.98;;;;;;;28.64;48.18;101363.75;1686697;83;21066;-56
2022/08/29 05:35:57;;;;;;;8.00;3.87;;;;;;;28.66;48.34;101369.82;1707850;82;21081;-56
2022/08/29 05:38:24;;;;;;;13.03;3.40;;;;;;;28.68;48.56;101364.32;1699101;83;21043;-56
2022/08/29 05:40:51;;;;;;;10.48;4.20;;;;;;;28.71;48.96;101370.73;1691705;83;21089;-57
2022/08/29 05:43:18;;;;;;;10.25;4.00;;;;;;;28.73;49.18;101374.98;1694069;83;21042;-56
2022/08/29 05:45:44;;;;;;;6.33;3.52;;;;;;;28.76;49.46;101372.05;1713818;82;21034;-57
2022/08/29 05:48:13;;;;;;;11.10;4.10;;;;;;;28.81;49.75;101373.81;1694690;82;21057;-56
2022/08/29 05:50:41;;;;;;;12.73;4.58;;;;;;;28.86;50.02;101371.59;1704752;83;21545;-56
2022/08/29 05:53:09;;;;;;;12.23;4.20;;;;;;;28.92;50.22;101379.08;1703479;83;21050;-56
2022/08/29 05:55:43;;;;;;;11.60;4.33;;;;;;;28.98;50.37;101378.53;1709512;83;21532;-56
2022/08/29 05:58:10;;;;;;;10.75;3.85;;;;;;;29.05;50.54;101379.33;1705543;83;21057;-57
2022/08/29 06:00:42;;;;;;;12.47;4.58;;;;;;;29.13;50.79;101386.19;1714842;83;20987;-56
2022/08/29 06:03:10;;;;;;;10.03;4.22;;;;;;;29.20;50.92;101388.23;1690015;83;22248;-56
2022/08/29 06:05:38;;;;;;;12.13;4.72;;;;;;;29.29;51.09;101391.89;1717508;81;21026;-56
2022/08/29 06:08:06;;;;;;;12.60;4.35;;;;;;;29.41;51.15;101391.64;1706211;82;21045;-56
2022/08/29 06:10:41;;;;;;;9.43;5.25;;;;;;;29.50;51.23;101389.96;1687189;83;21065;-56
2022/08/29 06:13:07;;;;;;;11.45;4.35;;;;;;;29.60;51.22;101397.03;1683720;83;21033;-56
2022/08/29 06:15:34;;;;;;;9.40;4.58;;;;;;;29.73;51.20;101402.16;1687909;84;21089;-57
2022/08/29 06:18:01;;;;;;;10.35;4.70;;;;;;;29.85;51.26;101405.54;1721132;83;21078;-56
2022/08/29 06:20:28;;;;;;;12.15;4.05;;;;;;;29.98;51.20;101409.65;1714996;83;21579;-56
2022/08/29 06:22:55;;;;;;;7.97;4.12;;;;;;;30.17;51.04;101409.61;1718932;82;21101;-57
2022/08/29 06:25:22;;;;;;;9.10;4.20;;;;;;;30.33;50.84;101410.41;1722435;83;21546;-57
2022/08/29 06:27:54;;;;;;;11.97;4.37;;;;;;;30.48;50.62;101414.31;1715443;82;21074;-57
2022/08/29 06:30:21;;;;;;;13.32;4.60;;;;;;;30.58;50.12;101412.96;1689576;84;21136;-57
2022/08/29 06:32:48;;;;;;;7.58;4.53;;;;;;;30.68;50.05;101415.12;1688963;84;21058;-57
2022/08/29 06:35:14;;;;;;;12.65;3.80;;;;;;;30.77;49.75;101419.63;1694479;83;21549;-56
2022/08/29 06:37:41;;;;;;;17.35;5.05;;;;;;;30.84;49.53;101422.05;1699049;83;21081;-57
2022/08/29 06:40:10;;;;;;;11.78;4.33;;;;;;;30.90;48.99;101418.81;1707712;83;21577;-56
2022/08/29 06:42:36;;;;;;;13.20;4.42;;;;;;;30.93;48.42;101424.75;1681664;85;21067;-57
2022/08/29 06:45:05;;;;;;;7.35;4.28;;;;;;;30.98;48.45;101421.59;1722361;82;21213;-57
2022/08/29 06:47:33;;;;;;;9.03;3.85;;;;;;;31.01;48.50;101421.31;1721383;83;21010;-57
2022/08/29 06:50:00;;;;;;;9.80;4.20;;;;;;;31.05;48.18;101424.05;1725927;82;21046;-57
2022/08/29 06:52:27;;;;;;;11.15;4.00;;;;;;;31.11;47.16;101426.14;1719139;82;21022;-56
2022/08/29 06:54:54;;;;;;;8.98;3.72;;;;;;;31.16;46.81;101430.59;1679239;85;21089;-56
2022/08/29 06:57:21;;;;;;;11.78;3.92;;;;;;;31.22;46.83;101428.64;1718198;83;21099;-57
2022/08/29 06:59:48;;;;;;;8.23;3.50;;;;;;;31.26;46.11;101430.03;1725837;82;21081;-57
2022/08/29 07:02:15;;;;;;;9.88;4.45;;;;;;;31.32;45.45;101428.09;1718048;82;21014;-57
2022/08/29 07:04:42;;;;;;;8.25;4.37;;;;;;;31.36;44.61;101432.17;1722028;83;21604;-56
2022/08/29 07:07:08;;;;;;;6.33;3.67;;;;;;;31.42;43.93;101436.97;1720353;83;21475;-57
2022/08/29 07:09:35;;;;;;;8.35;4.03;;;;;;;31.46;43.23;101440.20;1721748;82;21070;-56
2022/08/29 07:12:05;;;;;;;9.15;3.87;;;;;;;31.49;44.26;101438.05;1719566;82;21082;-57
2022/08/29 07:14:31;;;;;;;8.73;4.47;;;;;;;31.53;42.52;101437.27;1718844;82;21035;-57
2022/08/29 07:17:00;;;;;;;9.15;4.22;;;;;;;31.58;40.43;101437.14;1722732;83;21018;-56
2022/08/29 07:19:27;;;;;;;11.68;3.77;;;;;;;31.70;39.83;101441.30;1719546;82;21054;-57
2022/08/29 07:21:53;;;;;;;11.75;4.10;;;;;;;31.85;40.35;101442.97;1720745;83;21037;-57
2022/08/29 07:24:20;;;;;;;9.65;4.20;;;;;;;32.02;42.55;101443.01;1720430;83;21011;-57
2022/08/29 07:26:47;;;;;;;6.55;3.77;;;;;;;32.18;43.05;101441.44;1718935;82;21090;-57
2022/08/29 07:29:18;;;;;;;11.73;4.35;;;;;;;32.34;43.22;101444.25;1718725;82;21080;-57
2022/08/29 07:31:46;;;;;;;10.32;4.60;;;;;;;32.53;42.62;101440.05;1691745;83;21054;-57
2022/08/29 07:34:13;;;;;;;7.60;3.87;;;;;;;32.74;42.41;101437.83;1677114;84;21050;-57
2022/08/29 07:36:41;;;;;;;8.73;4.65;;;;;;;32.92;41.26;101434.55;1643852;86;21624;-57
2022/08/29 07:39:11;;;;;;;7.75;3.62;;;;;;;33.04;40.67;101434.64;1654973;83;21036;-57
2022/08/29 07:41:38;;;;;;;10.58;4.35;;;;;;;33.13;39.71;101442.27;1686280;83;21033;-57
2022/08/29 07:44:05;;;;;;;14.25;3.70;;;;;;;33.15;40.31;101438.41;1675921;83;21175;-57
2022/08/29 07:46:32;;;;;;;8.75;4.55;;;;;;;33.17;40.63;101440.44;1683860;83;21557;-57
2022/08/29 07:48:58;;;;;;;8.55;3.22;;;;;;;33.16;40.33;101438.73;1685839;83;21022;-56
2022/08/29 07:51:25;;;;;;;10.43;3.95;;;;;;;33.14;39.25;101443.44;1688237;83;21139;-57
2022/08/29 07:53:53;;;;;;;8.68;3.17;;;;;;;33.13;38.25;101444.47;1687797;83;21098;-57
2022/08/29 07:56:26;;;;;;;12.68;4.05;;;;;;;33.13;38.48;101444.47;1683259;83;22247;-57
2022/08/29 07:58:53;;;;;;;9.15;4.03;;;;;;;33.13;39.05;101446.31;1635953;87;21510;-57
2022/08/29 08:01:20;;;;;;;10.88;4.15;;;;;;;33.14;39.28;101446.14;1638967;87;21097;-57
2022/08/29 08:03:48;;;;;;;10.80;3.90;;;;;;;33.09;40.30;101448.50;1649710;86;21602;-57
2022/08/29 08:06:16;;;;;;;11.05;3.20;;;;;;;33.07;40.43;101451.00;1622364;87;21050;-56
2022/08/29 08:08:44;;;;;;;11.40;4.30;;;;;;;33.04;40.54;101450.81;1622576;87;21074;-57
2022/08/29 08:11:11;;;;;;;6.67;3.60;;;;;;;33.03;40.76;101446.45;1609416;86;21091;-57
2022/08/29 08:13:38;;;;;;;11.38;3.65;;;;;;;33.01;41.24;101453.85;1620066;86;21069;-57
2022/08/29 08:16:08;;;;;;;7.00;3.40;;;;;;;33.00;40.98;101446.75;1623504;87;21076;-56
2022/08/29 08:18:36;;;;;;;13.80;3.75;;;;;;;32.99;41.15;101449.63;1592161;88;21144;-57
2022/08/29 08:21:04;;;;;;;11.83;3.80;;;;;;;33.00;41.28;101457.54;1586430;89;21249;-56
2022/08/29 08:23:31;;;;;;;7.90;3.30;;;;;;;32.97;41.28;101457.84;1613910;88;21077;-57
2022/08/29 08:25:58;;;;;;;9.55;3.72;;;;;;;33.00;41.83;101454.84;1609882;87;21073;-57
2022/08/29 08:28:27;;;;;;;8.35;3.75;;;;;;;33.05;41.95;101453.02;1632781;86;21073;-57
2022/08/29 08:30:54;;;;;;;10.45;4.50;;;;;;;33.06;42.03;101451.50;1642351;86;21142;-57
2022/08/29 08:33:21;;;;;;;9.58;4.05;;;;;;;33.08;42.09;101452.18;1646604;86;21164;-56
2022/08/29 08:35:47;;;;;;;10.78;3.85;;;;;;;33.07;42.00;101452.36;1626875;86;21105;-57
2022/08/29 08:38:15;;;;;;;7.83;3.70;;;;;;;33.10;42.09;101451.52;1646519;86;21058;-57
2022/08/29 08:40:56;;;;;;;8.80;3.65;;;;;;;33.13;42.11;101452.55;1628403;86;21073;-57
2022/08/29 08:43:27;;;;;;;9.33;4.12;;;;;;;33.13;42.03;101457.95;1598403;87;21065;-57
2022/08/29 08:45:55;;;;;;;9.90;3.80;;;;;;;33.17;42.13;101457.97;1629027;86;21192;-57
2022/08/29 08:48:27;;;;;;;12.35;4.00;;;;;;;33.21;42.04;101455.28;1594541;87;21085;-57
2022/08/29 08:51:10;;;;;;;9.18;3.37;;;;;;;33.22;41.87;101451.56;1586243;89;21122;-57
2022/08/29 08:53:47;;;;;;;9.68;3.72;;;;;;;33.26;41.78;101454.80;1578879;90;21117;-57
2022/08/29 08:56:32;;;;;;;8.83;4.12;;;;;;;33.30;42.07;101454.32;1612024;87;21065;-58
2022/08/29 08:59:41;;;;;;;6.58;3.37;;;;;;;33.34;42.10;101457.03;1583597;89;21134;-57
2022/08/29 09:02:35;;;;;;;6.55;3.67;;;;;;;33.38;42.11;101448.95;1565512;90;21120;-57
2022/08/29 09:05:40;;;;;;;11.60;3.60;;;;;;;33.43;42.07;101449.28;1552459;91;21099;-57
2022/08/29 09:08:46;;;;;;;8.58;3.80;;;;;;;33.47;42.16;101448.44;1553788;92;21113;-57
2022/08/29 09:11:42;;;;;;;9.98;3.98;;;;;;;33.53;42.22;101451.89;1509018;95;21116;-57
2022/08/29 09:14:55;;;;;;;7.83;3.62;;;;;;;33.57;42.43;101454.07;1509303;94;21175;-57
2022/08/29 09:17:40;;;;;;;7.72;3.92;;;;;;;33.62;42.20;101448.19;1532660;93;21121;-58
2022/08/29 09:20:18;;;;;;;6.60;3.20;;;;;;;33.64;42.41;101447.02;1522577;93;21170;-57
2022/08/29 09:23:05;;;;;;;8.93;4.15;;;;;;;33.69;42.20;101441.62;1495843;94;21553;-56
2022/08/29 09:25:35;;;;;;;14.60;4.37;;;;;;;33.72;42.39;101451.58;1506342;93;21070;-56
2022/08/29 09:28:05;;;;;;;7.50;3.75;;;;;;;33.76;42.85;101449.41;1534430;92;21084;-56
2022/08/29 09:30:32;;;;;;;11.00;4.00;;;;;;;33.80;43.07;101446.72;1537930;90;21636;-56
2022/08/29 09:33:09;;;;;;;13.72;4.25;;;;;;;33.83;42.78;101450.41;1529735;92;21535;-56
2022/08/29 09:35:49;;;;;;;11.83;3.62;;;;;;;33.84;42.37;101451.59;1520221;92;21644;-56
2022/08/29 09:38:24;;;;;;;11.05;3.87;;;;;;;33.88;42.69;101445.38;1527280;92;21106;-56
2022/08/29 09:41:00;;;;;;;10.85;3.72;;;;;;;33.90;43.14;101450.10;1526801;91;21092;-56
2022/08/29 09:43:39;;;;;;;16.15;4.22;;;;;;;33.94;43.42;101452.80;1530191;92;21068;-56
2022/08/29 09:46:11;;;;;;;12.47;3.75;;;;;;;33.98;43.57;101454.16;1527998;92;21145;-56
2022/08/29 09:48:50;;;;;;;8.83;4.20;;;;;;;34.00;43.77;101448.11;1477959;94;21617;-56
2022/08/29 09:51:25;;;;;;;8.90;3.98;;;;;;;34.02;44.02;101450.99;1480022;95;21101;-55
2022/08/29 09:53:53;;;;;;;9.53;3.72;;;;;;;34.06;43.93;101452.84;1486762;95;21178;-56
2022/08/29 09:56:24;;;;;;;9.93;3.83;;;;;;;34.09;43.76;101453.84;1471477;95;21597;-56
2022/08/29 09:58:59;;;;;;;;;;;;;;;34.12;43.77;101453.02;1462384;96;21128;-56
2022/08/29 10:01:26;;;;;;;13.50;3.55;;;;;;;34.15;43.17;101451.84;1465563;97;20132;-56
2022/08/29 10:03:59;;;;;;;11.90;4.25;;;;;;;34.16;43.22;101447.61;1464231;96;21111;-56
2022/08/29 10:09:09;;;;;;;8.40;4.00;;;;;;;34.20;43.51;101440.86;1481891;94;21143;-58
2022/08/29 10:11:48;;;;;;;11.68;4.55;;;;;;;34.24;43.85;101449.45;1452851;97;21131;-58
2022/08/29 10:14:34;;;;;;;16.25;4.47;;;;;;;34.25;42.96;101445.76;1453374;97;21101;-57
2022/08/29 10:20:10;;;;;;;13.15;4.25;;;;;;;34.27;42.78;101441.03;1507175;92;21065;-58
2022/08/29 10:22:57;;;;;;;9.93;4.03;;;;;;;34.30;43.37;101447.42;1494478;94;21089;-57
2022/08/29 10:25:37;;;;;;;11.12;3.98;;;;;;;34.31;43.55;101441.02;1506631;94;21121;-57
2022/08/29 10:28:34;;;;;;;12.45;3.92;;;;;;;34.36;43.65;101441.34;1549441;92;21200;-57
2022/08/29 10:31:09;;;;;;;12.73;4.62;;;;;;;34.35;42.98;101446.42;1536747;92;21092;-58
2022/08/29 10:34:10;;;;;;;11.68;4.72;;;;;;;34.36;43.21;101447.59;1544271;92;21874;-57
2022/08/29 10:36:39;;;;;;;15.58;4.60;;;;;;;34.37;43.77;101444.39;1516993;94;21229;-58
2022/08/29 10:39:36;;;;;;;14.53;4.70;;;;;;;34.37;44.57;101447.09;1532475;92;21121;-57
2022/08/29 10:42:11;;;;;;;14.35;4.37;;;;;;;34.36;45.01;101447.59;1521862;92;21092;-58
2022/08/29 10:45:04;;;;;;;17.87;4.95;;;;;;;34.36;45.63;101446.74;1497180;93;21091;-59
2022/08/29 10:47:36;;;;;;;11.00;4.35;;;;;;;34.35;45.98;101443.72;1507822;94;21111;-55
2022/08/29 10:50:28;;;;;;;15.28;4.50;;;;;;;34.37;46.09;101444.39;1514802;94;21588;-55
2022/08/29 10:53:21;;;;;;;12.18;4.47;;;;;;;34.38;45.43;101446.91;1505310;94;21134;-56
2022/08/29 10:55:58;;;;;;;13.70;4.55;;;;;;;34.40;45.10;101449.44;1512830;93;21089;-56
2022/08/29 10:58:49;;;;;;;14.93;4.50;;;;;;;34.44;44.98;101443.53;1522958;93;21087;-56
2022/08/29 11:01:33;;;;;;;14.47;4.40;;;;;;;34.47;44.54;101442.84;1526735;93;21062;-56
2022/08/29 11:04:25;;;;;;;17.77;5.15;;;;;;;34.49;44.22;101442.20;1508707;93;21096;-57
2022/08/29 11:07:15;;;;;;;14.53;4.78;;;;;;;34.49;44.49;101445.75;1539146;91;21209;-57
2022/08/29 11:09:49;;;;;;;12.27;4.40;;;;;;;34.48;44.85;101440.50;1561658;91;21059;-57
2022/08/29 11:15:37;;;;;;;14.70;6.05;;;;;;;34.42;45.47;101446.05;1512472;93;21147;-58
2022/08/29 11:18:22;;;;;;;12.03;4.47;;;;;;;34.39;45.38;101443.72;1512432;94;21180;-57
2022/08/29 11:20:54;;;;;;;9.93;4.10;;;;;;;34.35;45.45;101442.37;1461766;97;21138;-57
2022/08/29 11:23:45;;;;;;;17.17;5.00;;;;;;;34.31;45.76;101438.32;1475327;97;21107;-58
2022/08/29 11:26:27;;;;;;;;;;;;;;;34.29;45.20;101444.41;1518136;93;21707;-58
2022/08/29 11:29:17;;;;;;;17.35;4.42;;;;;;;34.26;45.52;101442.02;1518539;92;20277;-58
2022/08/29 11:31:52;;;;;;;19.42;5.20;;;;;;;34.22;46.07;101440.68;1514754;94;21157;-58
2022/08/29 11:34:46;;;;;;;16.52;5.67;;;;;;;34.20;46.49;101440.86;1417772;100;21133;-57
2022/08/29 11:37:53;;;;;;;17.55;4.90;;;;;;;34.19;46.93;101445.91;1472275;96;21146;-57
2022/08/29 11:41:02;;;;;;;18.20;4.60;;;;;;;34.18;47.38;101440.68;1471382;97;21119;-57
2022/08/29 11:43:35;;;;;;;25.25;5.45;;;;;;;34.18;48.02;101435.28;1422276;100;21090;-56
2022/08/29 11:46:04;;;;;;;20.40;5.53;;;;;;;34.20;48.63;101435.45;1424316;100;21629;-56
2022/08/29 11:48:41;;;;;;;17.98;5.80;;;;;;;34.23;49.04;101428.88;1429200;100;21176;-56
2022/08/29 11:51:32;;;;;;;18.10;5.40;;;;;;;34.26;49.27;101428.02;1425932;100;21145;-56
2022/08/29 11:54:27;;;;;;;14.13;5.12;;;;;;;34.31;49.45;101431.56;1428668;99;21092;-56
2022/08/29 11:57:06;;;;;;;23.20;6.83;;;;;;;34.34;49.54;101428.01;1433629;100;21157;-56